createdAt,value
2022-12-29T00:00:05.919Z,5.05
2022-12-29T00:00:18.125Z,5.18
2022-12-29T00:00:30.211Z,4.90
2022-12-29T00:00:42.224Z,4.97
2022-12-29T00:00:54.116Z,5.03
2022-12-29T00:01:06.103Z,5.03
2022-12-29T00:01:18.343Z,5.22
2022-12-29T00:01:30.609Z,5.78
2022-12-29T00:01:42.536Z,5.93
2022-12-29T00:01:54.387Z,5.60
2022-12-29T00:02:06.451Z,5.28
2022-12-29T00:02:18.621Z,5.30
2022-12-29T00:02:30.525Z,5.53
2022-12-29T00:02:42.795Z,5.32
2022-12-29T00:02:54.971Z,5.25
2022-12-29T00:03:07.182Z,5.40
2022-12-29T00:03:19.167Z,5.47
2022-12-29T00:03:31.085Z,5.35
2022-12-29T00:03:43.135Z,5.32
2022-12-29T00:03:55.267Z,4.70
2022-12-29T00:04:12.911Z,4.75
2022-12-29T00:04:26.426Z,5.45
2022-12-29T00:04:38.312Z,5.35
2022-12-29T00:04:52.863Z,5.20
2022-12-29T00:05:05.169Z,4.63
2022-12-29T00:05:17.098Z,4.47
2022-12-29T00:05:29.044Z,4.63
2022-12-29T00:05:41.007Z,5.03
2022-12-29T00:05:57.319Z,5.50
2022-12-29T00:06:09.311Z,5.35
2022-12-29T00:06:21.173Z,4.97
2022-12-29T00:06:33.133Z,5.18
2022-12-29T00:06:45.039Z,5.88
2022-12-29T00:06:56.921Z,5.60
2022-12-29T00:07:08.820Z,4.90
2022-12-29T00:07:20.627Z,4.55
2022-12-29T00:07:32.476Z,4.82
2022-12-29T00:07:44.397Z,5.32
2022-12-29T00:07:56.221Z,4.85
2022-12-29T00:08:08.043Z,4.57
2022-12-29T00:08:19.868Z,4.65
2022-12-29T00:08:41.178Z,5.20
2022-12-29T00:08:53.368Z,5.03
2022-12-29T00:09:05.348Z,4.78
2022-12-29T00:09:17.576Z,5.22
2022-12-29T00:09:29.546Z,5.40
2022-12-29T00:09:41.400Z,5.10
2022-12-29T00:09:53.392Z,5.40
2022-12-29T00:10:06.107Z,5.45
2022-12-29T00:10:18.041Z,5.30
2022-12-29T00:10:29.806Z,5.40
2022-12-29T00:10:41.572Z,5.00
2022-12-29T00:10:53.404Z,5.13
2022-12-29T00:11:05.461Z,5.05
2022-12-29T00:11:22.793Z,5.30
2022-12-29T00:11:34.762Z,4.80
2022-12-29T00:11:46.611Z,4.50
2022-12-29T00:11:59.125Z,4.48
2022-12-29T00:12:10.936Z,4.72
2022-12-29T00:12:22.958Z,4.70
2022-12-29T00:12:53.444Z,4.43
2022-12-29T00:13:23.556Z,5.40
2022-12-29T00:13:54.342Z,5.25
2022-12-29T00:14:26.366Z,4.82
2022-12-29T00:14:56.884Z,5.18
2022-12-29T00:15:27.735Z,5.25
2022-12-29T00:15:39.689Z,4.95
2022-12-29T00:15:51.512Z,4.97
2022-12-29T00:16:03.431Z,5.25
2022-12-29T00:16:15.315Z,5.15
2022-12-29T00:16:28.010Z,5.10
2022-12-29T00:16:45.134Z,5.50
2022-12-29T00:16:57.056Z,5.63
2022-12-29T00:17:08.977Z,5.32
2022-12-29T00:17:20.887Z,5.30
2022-12-29T00:17:32.677Z,5.50
2022-12-29T00:17:44.591Z,5.75
2022-12-29T00:17:56.519Z,5.53
2022-12-29T00:18:08.540Z,5.35
2022-12-29T00:18:20.372Z,5.53
2022-12-29T00:18:32.163Z,5.47
2022-12-29T00:18:43.948Z,5.07
2022-12-29T00:18:55.886Z,4.93
2022-12-29T00:19:27.754Z,5.18
2022-12-29T00:19:57.969Z,6.20
2022-12-29T00:20:28.955Z,5.45
2022-12-29T00:20:59.328Z,5.30
2022-12-29T00:21:37.807Z,5.05
2022-12-29T00:22:08.115Z,5.40
2022-12-29T00:22:39.111Z,4.88
2022-12-29T00:23:09.716Z,4.56
2022-12-29T00:23:40.831Z,5.88
2022-12-29T00:24:11.405Z,5.32
2022-12-29T00:24:23.171Z,5.35
2022-12-29T00:24:53.789Z,5.72
2022-12-29T00:25:06.380Z,5.25
2022-12-29T00:25:36.666Z,5.35
2022-12-29T00:26:07.405Z,5.30
2022-12-29T00:26:48.069Z,6.10
2022-12-29T00:27:23.874Z,4.70
2022-12-29T00:27:54.818Z,5.45
2022-12-29T00:28:30.176Z,4.97
2022-12-29T00:29:00.794Z,5.57
2022-12-29T00:29:31.411Z,4.90
2022-12-29T00:30:01.736Z,5.22
2022-12-29T00:30:34.721Z,5.05
2022-12-29T00:31:05.080Z,5.40
2022-12-29T00:31:35.472Z,5.20
2022-12-29T00:32:05.817Z,4.82
2022-12-29T00:32:36.370Z,5.50
2022-12-29T00:33:06.524Z,4.95
2022-12-29T00:33:39.641Z,5.57
2022-12-29T00:34:09.884Z,4.90
2022-12-29T00:34:39.853Z,4.30
2022-12-29T00:35:09.463Z,5.38
2022-12-29T00:35:36.153Z,5.60
2022-12-29T00:35:54.671Z,5.25
2022-12-29T00:36:13.000Z,4.95
2022-12-29T00:36:28.481Z,5.43
2022-12-29T00:36:41.342Z,5.25
2022-12-29T00:36:53.520Z,4.85
2022-12-29T00:37:05.440Z,4.47
2022-12-29T00:37:17.285Z,4.88
2022-12-29T00:37:48.280Z,4.85
2022-12-29T00:38:23.692Z,5.55
2022-12-29T00:38:56.491Z,4.85
2022-12-29T00:39:35.350Z,4.65
2022-12-29T00:40:19.375Z,5.15
2022-12-29T00:40:49.649Z,5.38
2022-12-29T00:41:20.029Z,5.28
2022-12-29T00:41:50.346Z,5.28
2022-12-29T00:42:27.157Z,4.95
2022-12-29T00:42:57.732Z,4.75
2022-12-29T00:43:28.394Z,5.20
2022-12-29T00:43:58.612Z,5.22
2022-12-29T00:44:13.116Z,5.45
2022-12-29T00:44:25.852Z,5.46
2022-12-29T00:44:37.647Z,5.82
2022-12-29T00:44:49.472Z,6.07
2022-12-29T00:45:01.313Z,6.07
2022-12-29T00:45:13.116Z,5.85
2022-12-29T00:45:25.029Z,5.57
2022-12-29T00:45:36.925Z,5.88
2022-12-29T00:45:49.135Z,5.78
2022-12-29T00:46:00.981Z,5.63
2022-12-29T00:46:19.273Z,5.07
2022-12-29T00:46:35.074Z,4.97
2022-12-29T00:46:47.081Z,5.22
2022-12-29T00:47:03.222Z,5.15
2022-12-29T00:47:15.229Z,5.68
2022-12-29T00:47:27.249Z,5.65
2022-12-29T00:47:39.051Z,5.95
2022-12-29T00:47:50.857Z,5.93
2022-12-29T00:48:02.694Z,5.50
2022-12-29T00:48:14.500Z,5.05
2022-12-29T00:48:44.622Z,5.00
2022-12-29T00:49:14.899Z,5.25
2022-12-29T00:49:32.872Z,5.95
2022-12-29T00:49:44.707Z,5.68
2022-12-29T00:49:56.505Z,5.45
2022-12-29T00:50:08.839Z,4.97
2022-12-29T00:50:20.737Z,4.88
2022-12-29T00:50:32.491Z,5.03
2022-12-29T00:50:44.238Z,5.80
2022-12-29T00:50:57.490Z,6.20
2022-12-29T00:51:09.380Z,5.40
2022-12-29T00:51:21.370Z,5.10
2022-12-29T00:51:33.184Z,4.93
2022-12-29T00:51:45.283Z,5.13
2022-12-29T00:51:59.620Z,5.35
2022-12-29T00:52:12.970Z,5.40
2022-12-29T00:52:24.875Z,4.90
2022-12-29T00:52:36.812Z,5.07
2022-12-29T00:52:48.722Z,5.25
2022-12-29T00:53:00.533Z,5.30
2022-12-29T00:53:12.346Z,5.40
2022-12-29T00:53:24.175Z,5.97
2022-12-29T00:53:36.130Z,5.88
2022-12-29T00:53:47.888Z,5.90
2022-12-29T00:53:59.650Z,5.82
2022-12-29T00:54:11.625Z,5.53
2022-12-29T00:54:23.518Z,5.63
2022-12-29T00:54:37.632Z,6.13
2022-12-29T00:54:49.422Z,6.10
2022-12-29T00:55:01.246Z,5.32
2022-12-29T00:55:13.071Z,5.50
2022-12-29T00:55:25.491Z,6.05
2022-12-29T00:55:39.956Z,6.10
2022-12-29T00:55:51.888Z,5.30
2022-12-29T00:56:04.000Z,5.18
2022-12-29T00:56:15.946Z,6.00
2022-12-29T00:56:27.767Z,6.32
2022-12-29T00:56:39.732Z,6.18
2022-12-29T00:56:52.252Z,5.40
2022-12-29T00:57:04.913Z,5.80
2022-12-29T00:57:17.020Z,5.65
2022-12-29T00:57:29.935Z,5.35
2022-12-29T00:57:41.823Z,5.22
2022-12-29T00:57:53.643Z,5.07
2022-12-29T00:58:05.509Z,5.28
2022-12-29T00:58:17.313Z,5.38
2022-12-29T00:58:30.755Z,5.63
2022-12-29T00:58:42.546Z,5.65
2022-12-29T00:58:54.385Z,5.22
2022-12-29T00:59:08.524Z,5.18
2022-12-29T00:59:20.717Z,5.63
2022-12-29T00:59:32.548Z,5.63
2022-12-29T00:59:44.378Z,5.45
2022-12-29T00:59:56.215Z,5.28
2022-12-29T01:00:09.016Z,5.85
2022-12-29T01:00:20.768Z,6.03
2022-12-29T01:00:32.571Z,5.82
2022-12-29T01:00:44.544Z,5.30
2022-12-29T01:01:07.556Z,5.63
2022-12-29T01:01:19.703Z,4.97
2022-12-29T01:01:31.995Z,4.88
2022-12-29T01:01:44.383Z,5.40
2022-12-29T01:01:56.578Z,5.82
2022-12-29T01:02:08.846Z,5.72
2022-12-29T01:02:20.857Z,5.50
2022-12-29T01:02:32.807Z,5.53
2022-12-29T01:02:45.677Z,5.45
2022-12-29T01:02:57.766Z,5.97
2022-12-29T01:03:09.707Z,6.10
2022-12-29T01:03:21.873Z,5.78
2022-12-29T01:03:34.729Z,5.90
2022-12-29T01:03:46.505Z,6.00
2022-12-29T01:04:02.222Z,6.53
2022-12-29T01:04:15.999Z,6.18
2022-12-29T01:04:28.083Z,5.30
2022-12-29T01:04:40.101Z,5.50
2022-12-29T01:04:51.908Z,6.07
2022-12-29T01:05:03.919Z,6.25
2022-12-29T01:05:15.958Z,5.82
2022-12-29T01:05:27.783Z,5.65
2022-12-29T01:05:39.741Z,6.00
2022-12-29T01:05:51.663Z,5.97
2022-12-29T01:06:04.851Z,5.85
2022-12-29T01:06:16.772Z,5.53
2022-12-29T01:06:30.355Z,5.47
2022-12-29T01:06:42.304Z,5.80
2022-12-29T01:06:54.245Z,5.80
2022-12-29T01:07:06.163Z,5.95
2022-12-29T01:07:18.414Z,5.55
2022-12-29T01:07:30.283Z,5.90
2022-12-29T01:07:42.216Z,5.50
2022-12-29T01:07:54.123Z,5.35
2022-12-29T01:08:06.140Z,5.28
2022-12-29T01:08:19.057Z,4.97
2022-12-29T01:08:30.974Z,4.97
2022-12-29T01:08:42.798Z,5.43
2022-12-29T01:09:13.031Z,5.72
2022-12-29T01:09:43.647Z,5.22
2022-12-29T01:10:10.687Z,5.47
2022-12-29T01:10:22.588Z,5.38
2022-12-29T01:10:35.006Z,5.47
2022-12-29T01:10:46.899Z,5.65
2022-12-29T01:11:03.250Z,6.18
2022-12-29T01:11:15.166Z,6.13
2022-12-29T01:11:27.061Z,5.80
2022-12-29T01:11:39.718Z,5.72
2022-12-29T01:11:51.569Z,6.15
2022-12-29T01:12:04.659Z,6.07
2022-12-29T01:12:16.474Z,5.47
2022-12-29T01:12:42.128Z,5.20
2022-12-29T01:12:53.931Z,6.05
2022-12-29T01:13:05.926Z,6.20
2022-12-29T01:13:17.836Z,5.95
2022-12-29T01:13:29.824Z,6.35
2022-12-29T01:13:43.432Z,6.38
2022-12-29T01:13:55.437Z,5.78
2022-12-29T01:14:07.571Z,5.68
2022-12-29T01:14:19.931Z,5.68
2022-12-29T01:14:31.907Z,5.72
2022-12-29T01:14:43.765Z,6.25
2022-12-29T01:14:55.521Z,5.88
2022-12-29T01:15:09.418Z,5.53
2022-12-29T01:15:21.340Z,5.85
2022-12-29T01:15:33.087Z,6.57
2022-12-29T01:15:54.029Z,6.22
2022-12-29T01:16:06.785Z,5.55
2022-12-29T01:16:19.098Z,5.55
2022-12-29T01:16:31.058Z,6.07
2022-12-29T01:16:43.132Z,6.20
2022-12-29T01:16:55.806Z,5.70
2022-12-29T01:17:07.625Z,5.35
2022-12-29T01:17:19.568Z,5.10
2022-12-29T01:17:31.487Z,5.10
2022-12-29T01:17:43.502Z,5.65
2022-12-29T01:17:55.445Z,5.47
2022-12-29T01:18:07.325Z,5.72
2022-12-29T01:18:19.184Z,5.88
2022-12-29T01:18:31.134Z,5.72
2022-12-29T01:18:42.943Z,5.88
2022-12-29T01:18:54.844Z,6.10
2022-12-29T01:19:07.274Z,6.20
2022-12-29T01:19:19.396Z,5.90
2022-12-29T01:19:31.267Z,5.78
2022-12-29T01:19:43.036Z,5.63
2022-12-29T01:19:54.857Z,5.47
2022-12-29T01:20:07.520Z,5.50
2022-12-29T01:20:19.480Z,5.82
2022-12-29T01:20:31.300Z,6.13
2022-12-29T01:20:43.084Z,5.90
2022-12-29T01:21:05.897Z,5.78
2022-12-29T01:21:19.003Z,5.80
2022-12-29T01:21:31.041Z,5.80
2022-12-29T01:21:43.004Z,6.00
2022-12-29T01:21:54.849Z,6.25
2022-12-29T01:22:06.667Z,5.82
2022-12-29T01:22:19.112Z,5.45
2022-12-29T01:22:30.935Z,5.40
2022-12-29T01:22:43.570Z,5.78
2022-12-29T01:22:55.667Z,6.00
2022-12-29T01:23:07.573Z,5.80
2022-12-29T01:23:19.441Z,5.40
2022-12-29T01:23:31.475Z,5.25
2022-12-29T01:23:43.269Z,5.65
2022-12-29T01:23:55.062Z,6.10
2022-12-29T01:24:07.412Z,6.05
2022-12-29T01:24:20.003Z,6.05
2022-12-29T01:24:31.952Z,5.97
2022-12-29T01:24:43.735Z,5.97
2022-12-29T01:24:55.689Z,5.82
2022-12-29T01:25:08.206Z,6.22
2022-12-29T01:25:20.136Z,6.05
2022-12-29T01:25:32.077Z,6.60
2022-12-29T01:25:43.952Z,7.15
2022-12-29T01:25:55.975Z,7.50
2022-12-29T01:26:12.138Z,6.90
2022-12-29T01:26:23.945Z,6.43
2022-12-29T01:26:35.891Z,5.88
2022-12-29T01:26:48.085Z,6.05
2022-12-29T01:27:00.035Z,6.00
2022-12-29T01:27:11.952Z,6.20
2022-12-29T01:27:23.743Z,6.30
2022-12-29T01:27:35.929Z,6.03
2022-12-29T01:27:47.880Z,6.10
2022-12-29T01:28:00.049Z,6.18
2022-12-29T01:28:11.947Z,6.38
2022-12-29T01:28:26.096Z,6.57
2022-12-29T01:28:41.118Z,6.10
2022-12-29T01:28:53.122Z,6.00
2022-12-29T01:29:04.943Z,6.35
2022-12-29T01:29:16.947Z,6.63
2022-12-29T01:29:28.907Z,6.72
2022-12-29T01:29:40.711Z,6.25
2022-12-29T01:29:52.679Z,6.07
2022-12-29T01:30:05.467Z,6.18
2022-12-29T01:30:17.322Z,6.18
2022-12-29T01:30:30.186Z,5.70
2022-12-29T01:30:41.984Z,5.88
2022-12-29T01:30:53.939Z,6.50
2022-12-29T01:31:05.919Z,6.63
2022-12-29T01:31:17.968Z,6.28
2022-12-29T01:31:30.249Z,5.80
2022-12-29T01:31:42.118Z,6.15
2022-12-29T01:31:54.048Z,6.57
2022-12-29T01:32:06.148Z,6.53
2022-12-29T01:32:18.130Z,6.75
2022-12-29T01:32:29.944Z,6.30
2022-12-29T01:32:41.812Z,6.53
2022-12-29T01:32:53.679Z,6.60
2022-12-29T01:33:05.528Z,6.85
2022-12-29T01:33:17.439Z,6.15
2022-12-29T01:33:30.067Z,5.97
2022-12-29T01:33:42.506Z,6.25
2022-12-29T01:33:54.427Z,6.40
2022-12-29T01:34:06.541Z,5.90
2022-12-29T01:34:18.933Z,6.40
2022-12-29T01:34:30.749Z,6.63
2022-12-29T01:34:42.507Z,6.80
2022-12-29T01:34:54.271Z,6.85
2022-12-29T01:35:06.614Z,6.70
2022-12-29T01:35:18.417Z,6.22
2022-12-29T01:35:30.368Z,5.82
2022-12-29T01:35:42.280Z,6.10
2022-12-29T01:35:54.132Z,6.05
2022-12-29T01:36:08.249Z,5.57
2022-12-29T01:36:20.401Z,5.95
2022-12-29T01:36:32.361Z,6.03
2022-12-29T01:36:44.202Z,5.50
2022-12-29T01:36:56.057Z,5.35
2022-12-29T01:37:07.899Z,5.47
2022-12-29T01:37:19.845Z,6.25
2022-12-29T01:37:31.979Z,6.30
2022-12-29T01:37:43.737Z,6.22
2022-12-29T01:37:55.663Z,5.85
2022-12-29T01:38:08.863Z,5.88
2022-12-29T01:38:20.686Z,6.45
2022-12-29T01:38:33.177Z,6.85
2022-12-29T01:38:45.729Z,6.50
2022-12-29T01:38:57.667Z,6.30
2022-12-29T01:39:09.542Z,6.43
2022-12-29T01:39:21.500Z,6.28
2022-12-29T01:39:33.580Z,6.72
2022-12-29T01:39:45.347Z,6.53
2022-12-29T01:39:57.272Z,6.57
2022-12-29T01:40:10.049Z,6.18
2022-12-29T01:40:21.864Z,6.63
2022-12-29T01:40:33.819Z,6.78
2022-12-29T01:40:47.296Z,6.00
2022-12-29T01:40:59.162Z,5.40
2022-12-29T01:41:12.393Z,6.13
2022-12-29T01:41:24.489Z,6.40
2022-12-29T01:41:36.369Z,6.15
2022-12-29T01:41:48.334Z,6.05
2022-12-29T01:42:00.492Z,6.10
2022-12-29T01:42:19.449Z,6.35
2022-12-29T01:42:31.234Z,6.78
2022-12-29T01:42:43.051Z,6.60
2022-12-29T01:42:54.975Z,6.28
2022-12-29T01:43:11.566Z,6.22
2022-12-29T01:44:00.098Z,6.43
2022-12-29T01:45:14.845Z,6.38
2022-12-29T01:45:26.814Z,6.47
2022-12-29T01:45:38.956Z,6.07
2022-12-29T01:45:52.879Z,6.50
2022-12-29T01:46:05.015Z,6.78
2022-12-29T01:46:36.301Z,6.60
2022-12-29T01:46:48.112Z,6.00
2022-12-29T01:47:00.015Z,6.25
2022-12-29T01:47:12.040Z,6.25
2022-12-29T01:47:47.341Z,6.28
2022-12-29T01:48:01.787Z,6.53
2022-12-29T01:48:13.511Z,6.32
2022-12-29T01:48:25.908Z,6.43
2022-12-29T01:48:37.797Z,6.60
2022-12-29T01:48:49.776Z,6.80
2022-12-29T01:49:10.621Z,7.28
2022-12-29T01:49:25.856Z,7.47
2022-12-29T01:49:37.705Z,6.57
2022-12-29T01:49:49.689Z,6.60
2022-12-29T01:50:13.048Z,6.88
2022-12-29T01:50:39.035Z,6.78
2022-12-29T01:50:52.644Z,6.25
2022-12-29T01:51:04.564Z,6.10
2022-12-29T01:51:16.977Z,6.32
2022-12-29T01:51:30.798Z,6.50
2022-12-29T01:51:52.941Z,6.68
2022-12-29T01:52:07.602Z,6.72
2022-12-29T01:52:19.377Z,6.15
2022-12-29T01:52:33.106Z,6.30
2022-12-29T01:52:52.317Z,6.93
2022-12-29T01:53:19.312Z,6.40
2022-12-29T01:53:32.424Z,6.07
2022-12-29T01:53:44.274Z,6.43
2022-12-29T01:53:56.118Z,6.47
2022-12-29T01:54:15.081Z,6.75
2022-12-29T01:54:33.012Z,6.90
2022-12-29T01:54:48.511Z,7.18
2022-12-29T01:55:00.340Z,7.30
2022-12-29T01:55:12.156Z,7.15
2022-12-29T01:55:23.914Z,6.97
2022-12-29T01:55:43.024Z,6.22
2022-12-29T01:55:58.035Z,6.97
2022-12-29T01:56:11.091Z,7.22
2022-12-29T01:56:22.981Z,6.50
2022-12-29T01:56:34.792Z,6.38
2022-12-29T01:56:47.087Z,6.35
2022-12-29T01:57:02.595Z,7.07
2022-12-29T01:57:18.408Z,7.28
2022-12-29T01:57:37.580Z,6.93
2022-12-29T01:57:51.284Z,7.25
2022-12-29T01:58:05.463Z,6.80
2022-12-29T01:58:17.302Z,7.20
2022-12-29T01:58:33.632Z,7.38
2022-12-29T01:58:49.120Z,6.82
2022-12-29T01:59:07.513Z,6.78
2022-12-29T01:59:23.790Z,6.63
2022-12-29T01:59:39.766Z,6.88
2022-12-29T01:59:56.365Z,7.20
2022-12-29T02:00:12.929Z,7.13
2022-12-29T02:00:25.922Z,7.18
2022-12-29T02:00:38.658Z,6.65
2022-12-29T02:00:50.479Z,6.65
2022-12-29T02:01:03.200Z,6.35
2022-12-29T02:01:15.889Z,6.43
2022-12-29T02:01:27.759Z,6.55
2022-12-29T02:01:39.904Z,6.47
2022-12-29T02:01:52.162Z,6.68
2022-12-29T02:02:04.528Z,6.78
2022-12-29T02:02:16.597Z,7.28
2022-12-29T02:02:33.150Z,7.95
2022-12-29T02:02:54.905Z,7.93
2022-12-29T02:03:07.006Z,6.65
2022-12-29T02:03:19.478Z,6.40
2022-12-29T02:03:33.492Z,6.85
2022-12-29T02:03:45.470Z,7.25
2022-12-29T02:03:57.288Z,7.53
2022-12-29T02:04:10.824Z,7.05
2022-12-29T02:04:23.876Z,7.20
2022-12-29T02:04:35.756Z,6.85
2022-12-29T02:04:49.064Z,6.72
2022-12-29T02:05:06.508Z,6.75
2022-12-29T02:05:55.613Z,6.70
2022-12-29T02:06:22.217Z,6.80
2022-12-29T02:06:38.550Z,6.57
2022-12-29T02:07:00.771Z,6.32
2022-12-29T02:07:24.079Z,6.88
2022-12-29T02:07:35.976Z,7.28
2022-12-29T02:07:47.901Z,7.55
2022-12-29T02:07:59.779Z,7.75
2022-12-29T02:08:12.209Z,7.30
2022-12-29T02:08:24.874Z,7.22
2022-12-29T02:08:36.652Z,6.65
2022-12-29T02:08:48.755Z,6.45
2022-12-29T02:09:00.558Z,6.50
2022-12-29T02:09:12.410Z,6.65
2022-12-29T02:09:24.602Z,6.40
2022-12-29T02:09:36.669Z,6.78
2022-12-29T02:09:49.939Z,7.40
2022-12-29T02:10:01.799Z,7.75
2022-12-29T02:10:13.821Z,7.05
2022-12-29T02:10:27.161Z,6.47
2022-12-29T02:10:39.119Z,6.55
2022-12-29T02:10:51.032Z,6.47
2022-12-29T02:11:03.025Z,6.72
2022-12-29T02:11:15.054Z,7.32
2022-12-29T02:11:28.047Z,7.72
2022-12-29T02:11:40.010Z,7.00
2022-12-29T02:11:51.948Z,6.57
2022-12-29T02:12:04.058Z,6.97
2022-12-29T02:12:16.299Z,7.07
2022-12-29T02:12:29.794Z,7.10
2022-12-29T02:12:41.602Z,7.03
2022-12-29T02:12:54.423Z,6.72
2022-12-29T02:13:06.317Z,6.28
2022-12-29T02:13:19.163Z,6.22
2022-12-29T02:13:31.126Z,6.32
2022-12-29T02:13:43.240Z,6.68
2022-12-29T02:13:55.100Z,7.25
2022-12-29T02:14:11.397Z,7.53
2022-12-29T02:14:23.226Z,6.93
2022-12-29T02:14:35.155Z,6.55
2022-12-29T02:14:47.499Z,7.03
2022-12-29T02:15:01.137Z,6.97
2022-12-29T02:15:12.972Z,7.05
2022-12-29T02:15:48.712Z,7.57
2022-12-29T02:16:14.664Z,7.90
2022-12-29T02:16:44.314Z,7.18
2022-12-29T02:17:35.745Z,6.60
2022-12-29T02:18:31.359Z,6.55
2022-12-29T02:18:59.236Z,6.90
2022-12-29T02:19:48.169Z,6.90
2022-12-29T02:20:14.432Z,7.03
2022-12-29T02:21:09.636Z,7.00
2022-12-29T02:22:17.943Z,8.20
2022-12-29T02:22:51.881Z,7.55
2022-12-29T02:23:15.337Z,7.10
2022-12-29T02:23:36.994Z,7.06
2022-12-29T02:24:07.257Z,7.55
2022-12-29T02:24:55.921Z,7.22
2022-12-29T02:25:19.642Z,6.97
2022-12-29T02:26:12.214Z,7.28
2022-12-29T02:26:51.199Z,6.25
2022-12-29T02:27:37.203Z,7.30
2022-12-29T02:28:01.661Z,7.00
2022-12-29T02:28:31.716Z,7.75
2022-12-29T02:29:08.398Z,6.85
2022-12-29T02:29:31.927Z,6.38
2022-12-29T02:30:05.864Z,6.63
2022-12-29T02:30:51.787Z,7.15
2022-12-29T02:31:39.751Z,8.02
2022-12-29T02:32:23.228Z,7.57
2022-12-29T02:33:10.849Z,7.28
2022-12-29T02:33:50.117Z,7.15
2022-12-29T02:34:23.508Z,6.93
2022-12-29T02:34:53.549Z,7.10
2022-12-29T02:35:25.534Z,7.90
2022-12-29T02:35:59.488Z,6.68
2022-12-29T02:36:44.921Z,6.03
2022-12-29T02:38:41.368Z,6.50
2022-12-29T02:39:12.401Z,6.80
2022-12-29T02:39:45.581Z,6.97
2022-12-29T02:40:25.970Z,7.88
2022-12-29T02:40:54.500Z,7.07
2022-12-29T02:41:35.881Z,6.55
2022-12-29T02:42:16.804Z,7.03
2022-12-29T02:42:40.142Z,6.95
2022-12-29T02:43:09.988Z,6.90
2022-12-29T02:43:34.816Z,6.40
2022-12-29T02:44:30.874Z,7.72
2022-12-29T02:44:57.516Z,6.78
2022-12-29T02:45:22.844Z,6.15
2022-12-29T02:45:56.739Z,6.40
2022-12-29T02:46:31.805Z,6.30
2022-12-29T02:46:56.533Z,6.53
2022-12-29T02:47:20.797Z,7.13
2022-12-29T02:47:44.953Z,6.65
2022-12-29T02:48:25.274Z,6.95
2022-12-29T02:59:41.899Z,5.38
2022-12-29T02:59:58.137Z,5.45
2022-12-29T03:00:12.625Z,5.85
2022-12-29T03:00:24.431Z,6.45
2022-12-29T03:00:47.189Z,6.47
2022-12-29T03:01:41.162Z,6.03
2022-12-29T03:02:19.994Z,5.53
2022-12-29T03:02:53.190Z,5.88
2022-12-29T03:04:15.816Z,5.03
2022-12-29T03:04:45.665Z,5.72
2022-12-29T03:05:02.935Z,6.18
2022-12-29T03:05:26.704Z,6.35
2022-12-29T03:06:19.310Z,6.10
2022-12-29T03:06:53.225Z,5.40
2022-12-29T03:07:29.865Z,6.07
2022-12-29T03:07:56.430Z,6.63
2022-12-29T03:08:30.162Z,5.97
2022-12-29T03:08:53.491Z,6.22
2022-12-29T03:09:18.992Z,5.53
2022-12-29T03:09:44.792Z,7.25
2022-12-29T03:10:35.500Z,6.47
2022-12-29T03:11:29.421Z,5.75
2022-12-29T03:12:08.945Z,5.93
2022-12-29T03:12:55.221Z,5.22
2022-12-29T03:13:40.224Z,5.97
2022-12-29T03:14:12.340Z,5.32
2022-12-29T03:14:52.778Z,5.90
2022-12-29T03:15:30.942Z,5.47
2022-12-29T03:16:05.500Z,5.88
2022-12-29T03:16:45.138Z,6.30
2022-12-29T03:17:01.884Z,5.97
2022-12-29T03:17:43.432Z,6.43
2022-12-29T03:18:10.563Z,6.40
2022-12-29T03:18:26.395Z,5.40
2022-12-29T03:19:02.470Z,5.07
2022-12-29T03:19:24.658Z,5.50
2022-12-29T03:19:42.890Z,4.95
2022-12-29T03:19:57.889Z,5.03
2022-12-29T03:20:11.790Z,5.18
2022-12-29T03:20:28.101Z,5.30
2022-12-29T03:20:45.382Z,5.18
2022-12-29T03:21:06.120Z,5.88
2022-12-29T03:21:55.852Z,6.60
2022-12-29T03:22:28.168Z,5.13
2022-12-29T03:22:42.671Z,5.40
2022-12-29T03:22:57.418Z,5.65
2022-12-29T03:23:09.232Z,6.35
2022-12-29T03:23:21.303Z,5.97
2022-12-29T03:23:33.416Z,5.72
2022-12-29T03:23:48.705Z,5.10
2022-12-29T03:24:00.541Z,4.93
2022-12-29T03:24:12.517Z,5.03
2022-12-29T03:24:30.672Z,5.15
2022-12-29T03:24:45.859Z,5.00
2022-12-29T03:25:22.111Z,5.05
2022-12-29T03:25:37.872Z,4.95
2022-12-29T03:25:52.834Z,5.13
2022-12-29T03:26:07.702Z,4.82
2022-12-29T03:26:19.584Z,4.70
2022-12-29T03:26:31.362Z,4.65
2022-12-29T03:26:43.117Z,5.22
2022-12-29T03:27:00.230Z,5.72
2022-12-29T03:27:14.748Z,6.50
2022-12-29T03:27:33.814Z,6.47
2022-12-29T03:27:52.603Z,6.18
2022-12-29T03:28:11.050Z,5.53
2022-12-29T03:28:30.437Z,5.07
2022-12-29T03:28:47.505Z,5.35
2022-12-29T03:28:59.325Z,5.03
2022-12-29T03:29:11.627Z,5.20
2022-12-29T03:29:23.370Z,4.93
2022-12-29T03:29:40.130Z,5.57
2022-12-29T03:29:55.384Z,5.97
2022-12-29T03:30:08.296Z,5.32
2022-12-29T03:30:20.174Z,5.30
2022-12-29T03:30:32.062Z,5.10
2022-12-29T03:30:44.021Z,5.30
2022-12-29T03:30:56.891Z,5.90
2022-12-29T03:31:09.459Z,5.80
2022-12-29T03:31:21.779Z,5.03
2022-12-29T03:31:33.498Z,4.35
2022-12-29T03:31:45.421Z,5.03
2022-12-29T03:31:57.583Z,5.85
2022-12-29T03:32:09.840Z,5.63
2022-12-29T03:32:27.346Z,5.68
2022-12-29T03:32:48.038Z,5.60
2022-12-29T03:33:03.631Z,5.60
2022-12-29T03:33:19.729Z,5.50
2022-12-29T03:33:31.668Z,4.95
2022-12-29T03:33:43.607Z,5.10
2022-12-29T03:33:56.226Z,5.10
2022-12-29T03:34:08.109Z,4.78
2022-12-29T03:34:20.541Z,5.05
2022-12-29T03:34:32.366Z,4.80
2022-12-29T03:34:44.205Z,4.60
2022-12-29T03:34:56.178Z,4.57
2022-12-29T03:35:09.175Z,4.70
2022-12-29T03:35:26.125Z,4.57
2022-12-29T03:35:39.822Z,4.93
2022-12-29T03:35:52.920Z,5.35
2022-12-29T03:36:07.888Z,5.25
2022-12-29T03:36:33.973Z,4.95
2022-12-29T03:37:06.793Z,4.68
2022-12-29T03:37:23.353Z,4.57
2022-12-29T03:37:41.881Z,4.60
2022-12-29T03:38:18.521Z,4.25
2022-12-29T03:38:37.344Z,4.95
2022-12-29T03:39:03.130Z,3.95
2022-12-29T03:39:15.015Z,4.28
2022-12-29T03:39:26.962Z,4.35
2022-12-29T03:39:38.894Z,4.35
2022-12-29T03:39:50.703Z,4.80
2022-12-29T03:40:02.476Z,5.05
2022-12-29T03:40:14.416Z,4.80
2022-12-29T03:40:26.235Z,4.53
2022-12-29T03:40:39.434Z,4.78
2022-12-29T03:40:55.007Z,4.57
2022-12-29T03:41:10.088Z,5.22
2022-12-29T03:41:25.877Z,5.57
2022-12-29T03:41:37.744Z,4.95
2022-12-29T03:41:49.561Z,5.32
2022-12-29T03:42:04.278Z,5.07
2022-12-29T03:42:21.344Z,5.18
2022-12-29T03:42:35.135Z,4.72
2022-12-29T03:42:47.196Z,4.45
2022-12-29T03:42:59.094Z,4.90
2022-12-29T03:43:11.129Z,5.28
2022-12-29T03:43:23.012Z,5.28
2022-12-29T03:43:34.981Z,4.75
2022-12-29T03:43:47.454Z,4.07
2022-12-29T03:43:59.412Z,4.60
2022-12-29T03:44:12.386Z,5.10
2022-12-29T03:44:37.341Z,5.03
2022-12-29T03:44:49.211Z,4.60
2022-12-29T03:45:01.095Z,4.32
2022-12-29T03:45:12.945Z,4.70
2022-12-29T03:45:24.913Z,4.60
2022-12-29T03:45:36.685Z,4.80
2022-12-29T03:45:48.693Z,5.20
2022-12-29T03:46:00.707Z,5.63
2022-12-29T03:46:12.548Z,5.18
2022-12-29T03:46:24.535Z,4.90
2022-12-29T03:46:36.588Z,4.45
2022-12-29T03:46:48.612Z,4.55
2022-12-29T03:47:00.423Z,4.45
2022-12-29T03:47:13.465Z,4.63
2022-12-29T03:47:25.417Z,4.28
2022-12-29T03:47:37.231Z,4.00
2022-12-29T03:47:48.990Z,4.20
2022-12-29T03:48:00.788Z,4.75
2022-12-29T03:48:12.712Z,5.00
2022-12-29T03:48:24.526Z,4.72
2022-12-29T03:48:36.295Z,4.55
2022-12-29T03:48:48.153Z,4.20
2022-12-29T03:49:00.038Z,4.07
2022-12-29T03:49:11.926Z,4.53
2022-12-29T03:49:23.793Z,4.75
2022-12-29T03:49:35.619Z,4.32
2022-12-29T03:49:47.483Z,4.08
2022-12-29T03:49:59.407Z,4.22
2022-12-29T03:50:13.833Z,4.70
2022-12-29T03:50:26.353Z,4.85
2022-12-29T03:50:38.303Z,4.60
2022-12-29T03:50:50.157Z,4.38
2022-12-29T03:51:01.961Z,4.32
2022-12-29T03:51:13.814Z,4.80
2022-12-29T03:51:26.365Z,4.53
2022-12-29T03:51:38.215Z,4.45
2022-12-29T03:51:51.869Z,4.32
2022-12-29T03:52:04.366Z,4.80
2022-12-29T03:52:16.350Z,4.97
2022-12-29T03:52:28.795Z,4.38
2022-12-29T03:52:40.779Z,4.30
2022-12-29T03:52:52.603Z,4.28
2022-12-29T03:53:04.419Z,4.75
2022-12-29T03:53:16.315Z,4.60
2022-12-29T03:53:28.375Z,4.70
2022-12-29T03:53:40.217Z,4.82
2022-12-29T03:53:52.033Z,4.43
2022-12-29T03:54:04.032Z,4.57
2022-12-29T03:54:15.877Z,4.63
2022-12-29T03:54:27.714Z,4.50
2022-12-29T03:54:39.521Z,4.25
2022-12-29T03:54:51.303Z,4.20
2022-12-29T03:55:03.228Z,4.53
2022-12-29T03:55:15.352Z,4.75
2022-12-29T03:55:27.253Z,4.45
2022-12-29T03:55:39.219Z,4.20
2022-12-29T03:55:51.301Z,4.05
2022-12-29T03:56:03.387Z,4.20
2022-12-29T03:56:15.146Z,4.10
2022-12-29T03:56:27.411Z,4.15
2022-12-29T03:56:39.803Z,4.38
2022-12-29T03:56:51.808Z,4.45
2022-12-29T03:57:03.656Z,4.78
2022-12-29T03:57:15.638Z,4.57
2022-12-29T03:57:27.443Z,4.70
2022-12-29T03:57:39.444Z,4.43
2022-12-29T03:57:51.255Z,4.30
2022-12-29T03:58:03.284Z,4.50
2022-12-29T03:58:15.106Z,4.45
2022-12-29T03:58:27.008Z,3.78
2022-12-29T03:58:38.878Z,3.60
2022-12-29T03:58:50.794Z,3.85
2022-12-29T03:59:03.212Z,3.92
2022-12-29T03:59:15.010Z,3.97
2022-12-29T03:59:26.917Z,4.32
2022-12-29T03:59:38.815Z,4.40